sensor_id;sensor_type;location;lat;lon;timestamp;temperature;humidity
52643;DHT22;38531;53.296;6.614;2023-02-11T00:01:18;6.00;99.90
52643;DHT22;38531;53.296;6.614;2023-02-11T00:03:44;5.30;99.90
52643;DHT22;38531;53.296;6.614;2023-02-11T00:06:10;6.60;99.90
52643;DHT22;38531;53.296;6.614;2023-02-11T00:08:37;6.80;99.90
52643;DHT22;38531;53.296;6.614;2023-02-11T00:11:03;6.70;99.90
52643;DHT22;38531;53.296;6.614;2023-02-11T00:13:29;5.60;99.90
52643;DHT22;38531;53.296;6.614;2023-02-11T00:15:55;6.10;99.90
52643;DHT22;38531;53.296;6.614;2023-02-11T00:18:21;5.80;99.90
52643;DHT22;38531;53.296;6.614;2023-02-11T00:20:46;6.30;99.90
52643;DHT22;38531;53.296;6.614;2023-02-11T00:23:13;6.10;99.90
52643;DHT22;38531;53.296;6.614;2023-02-11T00:25:59;7.30;99.90
52643;DHT22;38531;53.296;6.614;2023-02-11T00:28:25;6.10;99.90
52643;DHT22;38531;53.296;6.614;2023-02-11T00:30:55;6.90;99.90
52643;DHT22;38531;53.296;6.614;2023-02-11T00:33:20;5.70;99.90
52643;DHT22;38531;53.296;6.614;2023-02-11T00:35:46;6.30;99.90
52643;DHT22;38531;53.296;6.614;2023-02-11T00:38:12;7.00;99.90
52643;DHT22;38531;53.296;6.614;2023-02-11T00:40:38;4.80;99.90
52643;DHT22;38531;53.296;6.614;2023-02-11T00:43:03;7.30;99.90
52643;DHT22;38531;53.296;6.614;2023-02-11T00:45:29;5.70;99.90
52643;DHT22;38531;53.296;6.614;2023-02-11T00:47:58;6.20;99.90
52643;DHT22;38531;53.296;6.614;2023-02-11T00:50:23;7.30;99.90
52643;DHT22;38531;53.296;6.614;2023-02-11T00:52:49;6.30;99.90
52643;DHT22;38531;53.296;6.614;2023-02-11T00:55:15;7.40;99.90
52643;DHT22;38531;53.296;6.614;2023-02-11T00:57:41;5.70;99.90
52643;DHT22;38531;53.296;6.614;2023-02-11T01:00:08;5.90;99.90
52643;DHT22;38531;53.296;6.614;2023-02-11T01:02:34;5.80;99.90
52643;DHT22;38531;53.296;6.614;2023-02-11T01:05:00;4.40;99.90
52643;DHT22;38531;53.296;6.614;2023-02-11T01:07:27;7.50;99.90
52643;DHT22;38531;53.296;6.614;2023-02-11T01:09:53;5.90;99.90
52643;DHT22;38531;53.296;6.614;2023-02-11T01:12:19;6.90;99.90
52643;DHT22;38531;53.296;6.614;2023-02-11T01:14:45;5.90;99.90
52643;DHT22;38531;53.296;6.614;2023-02-11T01:17:11;6.00;99.90
52643;DHT22;38531;53.296;6.614;2023-02-11T01:19:37;7.70;99.90
52643;DHT22;38531;53.296;6.614;2023-02-11T01:22:03;4.60;99.90
52643;DHT22;38531;53.296;6.614;2023-02-11T01:24:29;7.30;99.90
52643;DHT22;38531;53.296;6.614;2023-02-11T01:26:55;6.80;99.90
52643;DHT22;38531;53.296;6.614;2023-02-11T01:29:21;6.70;99.90
52643;DHT22;38531;53.296;6.614;2023-02-11T01:31:47;6.90;99.90
52643;DHT22;38531;53.296;6.614;2023-02-11T01:34:13;7.30;99.90
52643;DHT22;38531;53.296;6.614;2023-02-11T01:36:39;5.90;99.90
52643;DHT22;38531;53.296;6.614;2023-02-11T01:39:05;7.30;99.90
52643;DHT22;38531;53.296;6.614;2023-02-11T01:41:31;6.80;99.90
52643;DHT22;38531;53.296;6.614;2023-02-11T01:43:56;6.40;99.90
52643;DHT22;38531;53.296;6.614;2023-02-11T01:46:30;7.00;99.90
52643;DHT22;38531;53.296;6.614;2023-02-11T01:49:26;5.40;99.90
52643;DHT22;38531;53.296;6.614;2023-02-11T01:54:21;5.80;99.90
52643;DHT22;38531;53.296;6.614;2023-02-11T01:57:06;4.90;99.90
52643;DHT22;38531;53.296;6.614;2023-02-11T02:02:38;5.90;99.90
52643;DHT22;38531;53.296;6.614;2023-02-11T02:05:14;6.30;99.90
52643;DHT22;38531;53.296;6.614;2023-02-11T02:07:48;6.30;99.90
52643;DHT22;38531;53.296;6.614;2023-02-11T02:10:20;6.90;99.90
52643;DHT22;38531;53.296;6.614;2023-02-11T02:12:46;5.90;99.90
52643;DHT22;38531;53.296;6.614;2023-02-11T02:15:34;6.70;99.90
52643;DHT22;38531;53.296;6.614;2023-02-11T02:27:14;6.90;99.90
52643;DHT22;38531;53.296;6.614;2023-02-11T02:35:47;5.80;99.90
52643;DHT22;38531;53.296;6.614;2023-02-11T02:41:16;5.90;99.90
52643;DHT22;38531;53.296;6.614;2023-02-11T02:43:52;6.90;99.90
52643;DHT22;38531;53.296;6.614;2023-02-11T02:46:25;5.80;99.90
52643;DHT22;38531;53.296;6.614;2023-02-11T02:48:52;5.80;99.90
52643;DHT22;38531;53.296;6.614;2023-02-11T02:57:09;5.90;99.90
52643;DHT22;38531;53.296;6.614;2023-02-11T03:06:05;5.80;99.90
52643;DHT22;38531;53.296;6.614;2023-02-11T03:08:33;6.70;99.90
52643;DHT22;38531;53.296;6.614;2023-02-11T03:11:02;7.50;99.90
52643;DHT22;38531;53.296;6.614;2023-02-11T03:13:33;5.80;99.90
52643;DHT22;38531;53.296;6.614;2023-02-11T03:16:15;6.70;99.90
52643;DHT22;38531;53.296;6.614;2023-02-11T03:18:45;7.40;99.90
52643;DHT22;38531;53.296;6.614;2023-02-11T03:21:13;6.60;99.90
52643;DHT22;38531;53.296;6.614;2023-02-11T03:23:53;6.30;99.90
52643;DHT22;38531;53.296;6.614;2023-02-11T03:26:31;5.90;99.90
52643;DHT22;38531;53.296;6.614;2023-02-11T03:29:09;5.90;99.90
52643;DHT22;38531;53.296;6.614;2023-02-11T03:34:20;5.90;99.90
52643;DHT22;38531;53.296;6.614;2023-02-11T03:36:55;6.20;99.90
52643;DHT22;38531;53.296;6.614;2023-02-11T03:39:36;5.90;99.90
52643;DHT22;38531;53.296;6.614;2023-02-11T03:42:04;6.10;99.90
52643;DHT22;38531;53.296;6.614;2023-02-11T03:44:36;6.00;99.90
52643;DHT22;38531;53.296;6.614;2023-02-11T03:47:04;6.10;99.90
52643;DHT22;38531;53.296;6.614;2023-02-11T03:49:32;5.50;99.90
52643;DHT22;38531;53.296;6.614;2023-02-11T03:52:00;6.10;99.90
52643;DHT22;38531;53.296;6.614;2023-02-11T03:54:29;5.90;99.90
52643;DHT22;38531;53.296;6.614;2023-02-11T03:56:58;6.90;99.90
52643;DHT22;38531;53.296;6.614;2023-02-11T03:59:25;7.00;99.90
52643;DHT22;38531;53.296;6.614;2023-02-11T04:01:51;6.00;99.90
52643;DHT22;38531;53.296;6.614;2023-02-11T04:04:18;5.90;99.90
52643;DHT22;38531;53.296;6.614;2023-02-11T04:06:44;6.50;99.90
52643;DHT22;38531;53.296;6.614;2023-02-11T04:09:10;5.00;99.90
52643;DHT22;38531;53.296;6.614;2023-02-11T04:11:36;7.40;99.90
52643;DHT22;38531;53.296;6.614;2023-02-11T04:14:01;7.00;99.90
52643;DHT22;38531;53.296;6.614;2023-02-11T04:16:27;6.90;99.90
52643;DHT22;38531;53.296;6.614;2023-02-11T04:18:55;7.10;99.90
52643;DHT22;38531;53.296;6.614;2023-02-11T04:21:21;6.90;99.90
52643;DHT22;38531;53.296;6.614;2023-02-11T04:23:47;7.50;99.90
52643;DHT22;38531;53.296;6.614;2023-02-11T04:26:13;6.10;99.90
52643;DHT22;38531;53.296;6.614;2023-02-11T04:28:38;7.30;99.90
52643;DHT22;38531;53.296;6.614;2023-02-11T04:31:04;6.50;99.90
52643;DHT22;38531;53.296;6.614;2023-02-11T04:33:30;6.10;99.90
52643;DHT22;38531;53.296;6.614;2023-02-11T04:35:56;6.90;99.90
52643;DHT22;38531;53.296;6.614;2023-02-11T04:38:22;7.00;99.90
52643;DHT22;38531;53.296;6.614;2023-02-11T04:40:49;7.60;99.90
52643;DHT22;38531;53.296;6.614;2023-02-11T04:43:14;6.00;99.90
52643;DHT22;38531;53.296;6.614;2023-02-11T04:45:40;6.80;99.90
52643;DHT22;38531;53.296;6.614;2023-02-11T04:48:06;6.30;99.90
52643;DHT22;38531;53.296;6.614;2023-02-11T04:50:31;7.00;99.90
52643;DHT22;38531;53.296;6.614;2023-02-11T04:52:57;6.80;99.90
52643;DHT22;38531;53.296;6.614;2023-02-11T04:55:23;7.60;99.90
52643;DHT22;38531;53.296;6.614;2023-02-11T04:57:48;6.80;99.90
52643;DHT22;38531;53.296;6.614;2023-02-11T05:00:15;7.10;99.90
52643;DHT22;38531;53.296;6.614;2023-02-11T05:02:40;6.50;99.90
52643;DHT22;38531;53.296;6.614;2023-02-11T05:05:06;7.40;99.90
52643;DHT22;38531;53.296;6.614;2023-02-11T05:07:32;6.50;99.90
52643;DHT22;38531;53.296;6.614;2023-02-11T05:09:58;7.30;99.90
52643;DHT22;38531;53.296;6.614;2023-02-11T05:12:23;6.80;99.90
52643;DHT22;38531;53.296;6.614;2023-02-11T05:14:49;6.80;99.90
52643;DHT22;38531;53.296;6.614;2023-02-11T05:17:15;7.40;99.90
52643;DHT22;38531;53.296;6.614;2023-02-11T05:19:41;7.70;99.90
52643;DHT22;38531;53.296;6.614;2023-02-11T05:22:07;6.90;99.90
52643;DHT22;38531;53.296;6.614;2023-02-11T05:24:33;6.90;99.90
52643;DHT22;38531;53.296;6.614;2023-02-11T05:26:59;6.70;99.90
52643;DHT22;38531;53.296;6.614;2023-02-11T05:29:25;7.90;99.90
52643;DHT22;38531;53.296;6.614;2023-02-11T05:31:51;7.00;99.90
52643;DHT22;38531;53.296;6.614;2023-02-11T05:34:17;7.50;99.90
52643;DHT22;38531;53.296;6.614;2023-02-11T05:36:42;6.90;99.90
52643;DHT22;38531;53.296;6.614;2023-02-11T05:39:08;7.50;99.90
52643;DHT22;38531;53.296;6.614;2023-02-11T05:41:34;7.10;99.90
52643;DHT22;38531;53.296;6.614;2023-02-11T05:43:59;6.80;99.90
52643;DHT22;38531;53.296;6.614;2023-02-11T05:46:25;7.70;99.90
52643;DHT22;38531;53.296;6.614;2023-02-11T05:48:51;7.70;99.90
52643;DHT22;38531;53.296;6.614;2023-02-11T05:51:17;7.70;99.90
52643;DHT22;38531;53.296;6.614;2023-02-11T05:53:42;7.60;99.90
52643;DHT22;38531;53.296;6.614;2023-02-11T05:56:08;7.10;99.90
52643;DHT22;38531;53.296;6.614;2023-02-11T05:58:34;7.70;99.90
52643;DHT22;38531;53.296;6.614;2023-02-11T06:01:00;6.70;99.90
52643;DHT22;38531;53.296;6.614;2023-02-11T06:03:26;7.30;99.90
52643;DHT22;38531;53.296;6.614;2023-02-11T06:05:52;6.60;99.90
52643;DHT22;38531;53.296;6.614;2023-02-11T06:08:17;7.10;99.90
52643;DHT22;38531;53.296;6.614;2023-02-11T06:10:44;7.60;99.90
52643;DHT22;38531;53.296;6.614;2023-02-11T06:13:10;7.50;99.90
52643;DHT22;38531;53.296;6.614;2023-02-11T06:15:35;7.80;99.90
52643;DHT22;38531;53.296;6.614;2023-02-11T06:18:01;6.70;99.90
52643;DHT22;38531;53.296;6.614;2023-02-11T06:20:27;6.70;99.90
52643;DHT22;38531;53.296;6.614;2023-02-11T06:22:53;7.40;99.90
52643;DHT22;38531;53.296;6.614;2023-02-11T06:25:21;7.20;99.90
52643;DHT22;38531;53.296;6.614;2023-02-11T06:27:47;6.80;99.90
52643;DHT22;38531;53.296;6.614;2023-02-11T06:30:13;6.70;99.90
52643;DHT22;38531;53.296;6.614;2023-02-11T06:32:39;6.80;99.90
52643;DHT22;38531;53.296;6.614;2023-02-11T06:35:04;7.90;99.90
52643;DHT22;38531;53.296;6.614;2023-02-11T06:37:30;6.80;99.90
52643;DHT22;38531;53.296;6.614;2023-02-11T06:39:56;8.10;99.90
52643;DHT22;38531;53.296;6.614;2023-02-11T06:42:22;8.10;99.90
52643;DHT22;38531;53.296;6.614;2023-02-11T06:44:47;7.50;99.90
52643;DHT22;38531;53.296;6.614;2023-02-11T06:47:13;6.80;99.90
52643;DHT22;38531;53.296;6.614;2023-02-11T06:49:39;8.00;99.90
52643;DHT22;38531;53.296;6.614;2023-02-11T06:52:04;8.20;99.90
52643;DHT22;38531;53.296;6.614;2023-02-11T06:54:30;8.20;99.90
52643;DHT22;38531;53.296;6.614;2023-02-11T06:56:56;6.90;99.90
52643;DHT22;38531;53.296;6.614;2023-02-11T06:59:21;8.10;99.90
52643;DHT22;38531;53.296;6.614;2023-02-11T07:01:47;7.40;99.90
52643;DHT22;38531;53.296;6.614;2023-02-11T07:04:13;7.80;99.90
52643;DHT22;38531;53.296;6.614;2023-02-11T07:06:40;7.30;99.90
52643;DHT22;38531;53.296;6.614;2023-02-11T07:09:06;6.30;99.90
52643;DHT22;38531;53.296;6.614;2023-02-11T07:11:32;7.00;99.90
52643;DHT22;38531;53.296;6.614;2023-02-11T07:14:04;8.10;99.90
52643;DHT22;38531;53.296;6.614;2023-02-11T07:16:30;7.90;99.90
52643;DHT22;38531;53.296;6.614;2023-02-11T07:18:56;8.00;99.90
52643;DHT22;38531;53.296;6.614;2023-02-11T07:21:22;7.30;99.90
52643;DHT22;38531;53.296;6.614;2023-02-11T07:23:49;7.70;99.90
52643;DHT22;38531;53.296;6.614;2023-02-11T07:26:17;8.20;99.90
52643;DHT22;38531;53.296;6.614;2023-02-11T07:28:44;7.00;99.90
52643;DHT22;38531;53.296;6.614;2023-02-11T07:31:13;8.00;99.90
52643;DHT22;38531;53.296;6.614;2023-02-11T07:33:40;8.20;99.90
52643;DHT22;38531;53.296;6.614;2023-02-11T07:36:08;8.20;99.90
52643;DHT22;38531;53.296;6.614;2023-02-11T07:38:35;7.00;99.90
52643;DHT22;38531;53.296;6.614;2023-02-11T07:41:02;8.30;99.90
52643;DHT22;38531;53.296;6.614;2023-02-11T07:43:28;7.10;99.90
52643;DHT22;38531;53.296;6.614;2023-02-11T07:45:54;7.10;99.90
52643;DHT22;38531;53.296;6.614;2023-02-11T07:48:20;7.10;99.90
52643;DHT22;38531;53.296;6.614;2023-02-11T07:50:46;8.60;99.90
52643;DHT22;38531;53.296;6.614;2023-02-11T07:53:12;8.20;99.90
52643;DHT22;38531;53.296;6.614;2023-02-11T07:55:37;8.30;99.90
52643;DHT22;38531;53.296;6.614;2023-02-11T07:58:03;7.20;99.90
52643;DHT22;38531;53.296;6.614;2023-02-11T08:00:29;7.60;99.90
52643;DHT22;38531;53.296;6.614;2023-02-11T08:02:58;7.20;99.90
52643;DHT22;38531;53.296;6.614;2023-02-11T08:05:24;7.90;99.90
52643;DHT22;38531;53.296;6.614;2023-02-11T08:07:51;7.20;99.90
52643;DHT22;38531;53.296;6.614;2023-02-11T08:10:17;7.70;99.90
52643;DHT22;38531;53.296;6.614;2023-02-11T08:12:43;7.30;99.90
52643;DHT22;38531;53.296;6.614;2023-02-11T08:15:09;7.80;99.90
52643;DHT22;38531;53.296;6.614;2023-02-11T08:17:35;7.60;99.90
52643;DHT22;38531;53.296;6.614;2023-02-11T08:20:02;7.40;99.90
52643;DHT22;38531;53.296;6.614;2023-02-11T08:22:30;8.40;99.90
52643;DHT22;38531;53.296;6.614;2023-02-11T08:24:56;8.20;99.90
52643;DHT22;38531;53.296;6.614;2023-02-11T08:27:23;7.40;99.90
52643;DHT22;38531;53.296;6.614;2023-02-11T08:29:48;7.50;99.90
52643;DHT22;38531;53.296;6.614;2023-02-11T08:32:14;7.50;99.90
52643;DHT22;38531;53.296;6.614;2023-02-11T08:34:40;8.10;99.90
52643;DHT22;38531;53.296;6.614;2023-02-11T08:37:06;8.60;99.90
52643;DHT22;38531;53.296;6.614;2023-02-11T08:39:31;7.80;99.90
52643;DHT22;38531;53.296;6.614;2023-02-11T08:41:57;8.70;99.90
52643;DHT22;38531;53.296;6.614;2023-02-11T08:44:23;8.30;99.90
52643;DHT22;38531;53.296;6.614;2023-02-11T08:46:52;7.60;99.90
52643;DHT22;38531;53.296;6.614;2023-02-11T08:49:20;8.30;99.90
52643;DHT22;38531;53.296;6.614;2023-02-11T08:51:46;8.40;99.90
52643;DHT22;38531;53.296;6.614;2023-02-11T08:54:13;8.80;99.90
52643;DHT22;38531;53.296;6.614;2023-02-11T08:56:39;7.90;99.90
52643;DHT22;38531;53.296;6.614;2023-02-11T08:59:05;8.20;99.90
52643;DHT22;38531;53.296;6.614;2023-02-11T09:01:31;7.90;99.90
52643;DHT22;38531;53.296;6.614;2023-02-11T09:03:58;8.60;99.90
52643;DHT22;38531;53.296;6.614;2023-02-11T09:06:24;9.10;99.90
52643;DHT22;38531;53.296;6.614;2023-02-11T09:08:53;8.70;99.90
52643;DHT22;38531;53.296;6.614;2023-02-11T09:11:21;8.40;99.90
52643;DHT22;38531;53.296;6.614;2023-02-11T09:13:49;9.20;99.90
52643;DHT22;38531;53.296;6.614;2023-02-11T09:16:19;8.40;99.90
52643;DHT22;38531;53.296;6.614;2023-02-11T09:18:46;8.00;99.90
52643;DHT22;38531;53.296;6.614;2023-02-11T09:21:13;9.20;99.90
52643;DHT22;38531;53.296;6.614;2023-02-11T09:23:39;8.10;99.90
52643;DHT22;38531;53.296;6.614;2023-02-11T09:26:12;8.10;99.90
52643;DHT22;38531;53.296;6.614;2023-02-11T09:28:38;9.40;99.90
52643;DHT22;38531;53.296;6.614;2023-02-11T09:31:09;8.30;99.90
52643;DHT22;38531;53.296;6.614;2023-02-11T09:33:35;9.30;99.90
52643;DHT22;38531;53.296;6.614;2023-02-11T09:36:03;9.20;99.90
52643;DHT22;38531;53.296;6.614;2023-02-11T09:38:29;8.50;99.90
52643;DHT22;38531;53.296;6.614;2023-02-11T09:40:55;9.50;99.90
52643;DHT22;38531;53.296;6.614;2023-02-11T09:43:26;8.70;99.90
52643;DHT22;38531;53.296;6.614;2023-02-11T09:45:55;8.70;99.90
52643;DHT22;38531;53.296;6.614;2023-02-11T09:48:22;8.70;99.90
52643;DHT22;38531;53.296;6.614;2023-02-11T09:50:57;8.70;99.90
52643;DHT22;38531;53.296;6.614;2023-02-11T09:53:31;9.60;99.90
52643;DHT22;38531;53.296;6.614;2023-02-11T09:56:10;8.90;99.90
52643;DHT22;38531;53.296;6.614;2023-02-11T09:58:39;9.50;99.90
52643;DHT22;38531;53.296;6.614;2023-02-11T10:01:32;9.40;99.90
52643;DHT22;38531;53.296;6.614;2023-02-11T10:06:49;9.00;99.90
52643;DHT22;38531;53.296;6.614;2023-02-11T10:12:53;9.20;99.90
52643;DHT22;38531;53.296;6.614;2023-02-11T10:21:16;9.70;99.90
52643;DHT22;38531;53.296;6.614;2023-02-11T10:23:50;9.30;99.90
52643;DHT22;38531;53.296;6.614;2023-02-11T10:26:17;9.40;99.90
52643;DHT22;38531;53.296;6.614;2023-02-11T10:28:54;9.30;99.90
52643;DHT22;38531;53.296;6.614;2023-02-11T10:31:27;10.00;99.90
52643;DHT22;38531;53.296;6.614;2023-02-11T10:34:12;10.00;99.90
52643;DHT22;38531;53.296;6.614;2023-02-11T10:36:40;9.60;99.90
52643;DHT22;38531;53.296;6.614;2023-02-11T10:39:17;9.60;99.90
52643;DHT22;38531;53.296;6.614;2023-02-11T10:41:51;9.60;99.90
52643;DHT22;38531;53.296;6.614;2023-02-11T10:46:46;10.10;99.90
52643;DHT22;38531;53.296;6.614;2023-02-11T10:49:33;9.90;99.90
52643;DHT22;38531;53.296;6.614;2023-02-11T10:52:15;9.90;99.90
52643;DHT22;38531;53.296;6.614;2023-02-11T10:55:03;9.90;99.90
52643;DHT22;38531;53.296;6.614;2023-02-11T10:57:42;10.20;99.90
52643;DHT22;38531;53.296;6.614;2023-02-11T11:02:43;10.30;99.90
52643;DHT22;38531;53.296;6.614;2023-02-11T11:05:17;10.40;99.90
52643;DHT22;38531;53.296;6.614;2023-02-11T11:08:01;10.20;99.90
52643;DHT22;38531;53.296;6.614;2023-02-11T11:10:41;10.30;99.90
52643;DHT22;38531;53.296;6.614;2023-02-11T11:13:25;11.40;99.90
52643;DHT22;38531;53.296;6.614;2023-02-11T11:18:36;10.40;99.90
52643;DHT22;38531;53.296;6.614;2023-02-11T11:21:11;10.40;99.90
52643;DHT22;38531;53.296;6.614;2023-02-11T11:23:38;10.30;99.90
52643;DHT22;38531;53.296;6.614;2023-02-11T11:26:08;10.40;99.90
52643;DHT22;38531;53.296;6.614;2023-02-11T11:28:54;10.60;99.90
52643;DHT22;38531;53.296;6.614;2023-02-11T11:31:29;10.50;99.90
52643;DHT22;38531;53.296;6.614;2023-02-11T11:33:57;10.50;99.90
52643;DHT22;38531;53.296;6.614;2023-02-11T11:36:33;10.40;99.90
52643;DHT22;38531;53.296;6.614;2023-02-11T11:39:09;10.40;99.90
52643;DHT22;38531;53.296;6.614;2023-02-11T11:41:52;10.50;99.90
52643;DHT22;38531;53.296;6.614;2023-02-11T11:44:30;10.60;99.90
52643;DHT22;38531;53.296;6.614;2023-02-11T11:52:33;10.80;99.90
52643;DHT22;38531;53.296;6.614;2023-02-11T11:55:17;10.60;99.90
52643;DHT22;38531;53.296;6.614;2023-02-11T11:57:45;10.50;99.90
52643;DHT22;38531;53.296;6.614;2023-02-11T12:00:19;10.60;99.90
52643;DHT22;38531;53.296;6.614;2023-02-11T12:03:08;9.80;99.90
52643;DHT22;38531;53.296;6.614;2023-02-11T12:06:19;10.60;99.90
52643;DHT22;38531;53.296;6.614;2023-02-11T12:14:36;10.50;99.90
52643;DHT22;38531;53.296;6.614;2023-02-11T12:22:55;10.60;99.90
52643;DHT22;38531;53.296;6.614;2023-02-11T12:25:27;10.50;99.90
52643;DHT22;38531;53.296;6.614;2023-02-11T12:28:25;10.60;99.90
52643;DHT22;38531;53.296;6.614;2023-02-11T12:30:58;10.60;99.90
52643;DHT22;38531;53.296;6.614;2023-02-11T12:33:36;10.50;99.90
52643;DHT22;38531;53.296;6.614;2023-02-11T12:40:21;10.60;99.90
52643;DHT22;38531;53.296;6.614;2023-02-11T12:43:07;10.70;99.90
52643;DHT22;38531;53.296;6.614;2023-02-11T12:48:35;10.40;99.90
52643;DHT22;38531;53.296;6.614;2023-02-11T12:56:52;10.50;99.90
52643;DHT22;38531;53.296;6.614;2023-02-11T13:01:58;10.30;99.90
52643;DHT22;38531;53.296;6.614;2023-02-11T13:04:34;10.60;99.90
52643;DHT22;38531;53.296;6.614;2023-02-11T13:07:15;10.20;99.90
52643;DHT22;38531;53.296;6.614;2023-02-11T13:12:41;10.30;99.90
52643;DHT22;38531;53.296;6.614;2023-02-11T13:15:27;10.10;99.90
52643;DHT22;38531;53.296;6.614;2023-02-11T13:20:57;10.10;99.90
52643;DHT22;38531;53.296;6.614;2023-02-11T13:26:32;10.10;99.90
52643;DHT22;38531;53.296;6.614;2023-02-11T13:32:11;10.10;99.90
52643;DHT22;38531;53.296;6.614;2023-02-11T13:34:57;10.10;99.90
52643;DHT22;38531;53.296;6.614;2023-02-11T13:37:28;11.00;99.90
52643;DHT22;38531;53.296;6.614;2023-02-11T13:40:01;10.10;99.90
52643;DHT22;38531;53.296;6.614;2023-02-11T13:42:29;10.10;99.90
52643;DHT22;38531;53.296;6.614;2023-02-11T13:44:55;10.40;99.90
52643;DHT22;38531;53.296;6.614;2023-02-11T13:47:30;10.20;99.90
52643;DHT22;38531;53.296;6.614;2023-02-11T13:49:57;10.00;99.90
52643;DHT22;38531;53.296;6.614;2023-02-11T13:52:30;10.30;99.90
52643;DHT22;38531;53.296;6.614;2023-02-11T13:55:06;10.10;99.90
52643;DHT22;38531;53.296;6.614;2023-02-11T13:57:36;10.00;99.90
52643;DHT22;38531;53.296;6.614;2023-02-11T14:06:24;10.00;99.90
52643;DHT22;38531;53.296;6.614;2023-02-11T14:14:13;10.80;99.90
52643;DHT22;38531;53.296;6.614;2023-02-11T14:24:57;9.70;99.90
52643;DHT22;38531;53.296;6.614;2023-02-11T14:41:39;9.70;99.90
52643;DHT22;38531;53.296;6.614;2023-02-11T14:44:14;9.70;99.90
52643;DHT22;38531;53.296;6.614;2023-02-11T14:46:46;10.00;99.90
52643;DHT22;38531;53.296;6.614;2023-02-11T14:51:50;9.70;99.90
52643;DHT22;38531;53.296;6.614;2023-02-11T14:54:19;9.60;99.90
52643;DHT22;38531;53.296;6.614;2023-02-11T14:57:05;9.60;99.90
52643;DHT22;38531;53.296;6.614;2023-02-11T14:59:30;9.60;99.90
52643;DHT22;38531;53.296;6.614;2023-02-11T15:01:56;9.60;99.90
52643;DHT22;38531;53.296;6.614;2023-02-11T15:04:29;9.70;99.90
52643;DHT22;38531;53.296;6.614;2023-02-11T15:06:56;9.60;99.90
52643;DHT22;38531;53.296;6.614;2023-02-11T15:09:47;10.50;99.90
52643;DHT22;38531;53.296;6.614;2023-02-11T15:12:25;9.50;99.90
52643;DHT22;38531;53.296;6.614;2023-02-11T15:14:58;9.50;99.90
52643;DHT22;38531;53.296;6.614;2023-02-11T15:17:27;9.40;99.90
52643;DHT22;38531;53.296;6.614;2023-02-11T15:19:56;9.50;99.90
52643;DHT22;38531;53.296;6.614;2023-02-11T15:22:26;9.90;99.90
52643;DHT22;38531;53.296;6.614;2023-02-11T15:27:39;9.40;99.90
52643;DHT22;38531;53.296;6.614;2023-02-11T15:30:30;9.90;99.90
52643;DHT22;38531;53.296;6.614;2023-02-11T15:32:58;9.40;99.90
52643;DHT22;38531;53.296;6.614;2023-02-11T15:35:29;9.30;99.90
52643;DHT22;38531;53.296;6.614;2023-02-11T15:37:57;9.30;99.90
52643;DHT22;38531;53.296;6.614;2023-02-11T15:40:53;9.20;99.90
52643;DHT22;38531;53.296;6.614;2023-02-11T15:43:19;9.20;99.90
52643;DHT22;38531;53.296;6.614;2023-02-11T15:46:00;9.10;99.90
52643;DHT22;38531;53.296;6.614;2023-02-11T15:48:36;9.10;99.90
52643;DHT22;38531;53.296;6.614;2023-02-11T15:54:47;9.00;99.90
52643;DHT22;38531;53.296;6.614;2023-02-11T15:57:13;9.00;99.90
52643;DHT22;38531;53.296;6.614;2023-02-11T15:59:47;9.00;99.90
52643;DHT22;38531;53.296;6.614;2023-02-11T16:02:24;9.00;99.90
52643;DHT22;38531;53.296;6.614;2023-02-11T16:09:33;9.10;99.90
52643;DHT22;38531;53.296;6.614;2023-02-11T16:12:03;8.90;99.90
52643;DHT22;38531;53.296;6.614;2023-02-11T16:14:35;8.90;99.90
52643;DHT22;38531;53.296;6.614;2023-02-11T16:17:09;8.90;99.90
52643;DHT22;38531;53.296;6.614;2023-02-11T16:19:42;8.80;99.90
52643;DHT22;38531;53.296;6.614;2023-02-11T16:22:10;8.70;99.90
52643;DHT22;38531;53.296;6.614;2023-02-11T16:24:40;8.80;99.90
52643;DHT22;38531;53.296;6.614;2023-02-11T16:27:27;8.70;99.90
52643;DHT22;38531;53.296;6.614;2023-02-11T16:29:55;8.70;99.90
52643;DHT22;38531;53.296;6.614;2023-02-11T16:32:24;9.10;99.90
52643;DHT22;38531;53.296;6.614;2023-02-11T16:34:52;8.70;99.90
52643;DHT22;38531;53.296;6.614;2023-02-11T16:37:19;8.70;99.90
52643;DHT22;38531;53.296;6.614;2023-02-11T16:39:45;9.10;99.90
52643;DHT22;38531;53.296;6.614;2023-02-11T16:42:18;8.60;99.90
52643;DHT22;38531;53.296;6.614;2023-02-11T16:44:44;9.40;99.90
52643;DHT22;38531;53.296;6.614;2023-02-11T16:47:24;9.20;99.90
52643;DHT22;38531;53.296;6.614;2023-02-11T16:49:53;8.60;99.90
52643;DHT22;38531;53.296;6.614;2023-02-11T16:52:20;9.60;99.90
52643;DHT22;38531;53.296;6.614;2023-02-11T16:54:46;8.50;99.90
52643;DHT22;38531;53.296;6.614;2023-02-11T16:57:21;8.60;99.90
52643;DHT22;38531;53.296;6.614;2023-02-11T16:59:48;8.50;99.90
52643;DHT22;38531;53.296;6.614;2023-02-11T17:02:30;8.50;99.90
52643;DHT22;38531;53.296;6.614;2023-02-11T17:05:01;8.40;99.90
52643;DHT22;38531;53.296;6.614;2023-02-11T17:07:28;8.70;99.90
52643;DHT22;38531;53.296;6.614;2023-02-11T17:09:54;8.40;99.90
52643;DHT22;38531;53.296;6.614;2023-02-11T17:12:21;8.30;99.90
52643;DHT22;38531;53.296;6.614;2023-02-11T17:14:46;8.40;99.90
52643;DHT22;38531;53.296;6.614;2023-02-11T17:17:12;9.80;99.90
52643;DHT22;38531;53.296;6.614;2023-02-11T17:19:38;8.40;99.90
52643;DHT22;38531;53.296;6.614;2023-02-11T17:22:04;8.30;99.90
52643;DHT22;38531;53.296;6.614;2023-02-11T17:24:31;9.40;99.90
52643;DHT22;38531;53.296;6.614;2023-02-11T17:26:57;8.30;99.90
52643;DHT22;38531;53.296;6.614;2023-02-11T17:29:24;9.80;99.90
52643;DHT22;38531;53.296;6.614;2023-02-11T17:31:51;8.40;99.90
52643;DHT22;38531;53.296;6.614;2023-02-11T17:34:17;9.00;99.90
52643;DHT22;38531;53.296;6.614;2023-02-11T17:36:44;9.30;99.90
52643;DHT22;38531;53.296;6.614;2023-02-11T17:39:10;8.40;99.90
52643;DHT22;38531;53.296;6.614;2023-02-11T17:41:37;8.30;99.90
52643;DHT22;38531;53.296;6.614;2023-02-11T17:44:03;8.30;99.90
52643;DHT22;38531;53.296;6.614;2023-02-11T17:46:29;8.20;99.90
52643;DHT22;38531;53.296;6.614;2023-02-11T17:49:00;9.20;99.90
52643;DHT22;38531;53.296;6.614;2023-02-11T17:51:30;9.60;99.90
52643;DHT22;38531;53.296;6.614;2023-02-11T17:53:58;8.10;99.90
52643;DHT22;38531;53.296;6.614;2023-02-11T17:56:25;8.20;99.90
52643;DHT22;38531;53.296;6.614;2023-02-11T17:58:51;9.50;99.90
52643;DHT22;38531;53.296;6.614;2023-02-11T18:01:20;8.10;99.90
52643;DHT22;38531;53.296;6.614;2023-02-11T18:03:46;8.20;99.90
52643;DHT22;38531;53.296;6.614;2023-02-11T18:06:12;8.70;99.90
52643;DHT22;38531;53.296;6.614;2023-02-11T18:08:37;8.10;99.90
52643;DHT22;38531;53.296;6.614;2023-02-11T18:11:10;8.00;99.90
52643;DHT22;38531;53.296;6.614;2023-02-11T18:13:36;8.70;99.90
52643;DHT22;38531;53.296;6.614;2023-02-11T18:16:05;7.60;99.90
52643;DHT22;38531;53.296;6.614;2023-02-11T18:18:33;8.00;99.90
52643;DHT22;38531;53.296;6.614;2023-02-11T18:21:00;8.00;99.90
52643;DHT22;38531;53.296;6.614;2023-02-11T18:23:26;9.20;99.90
52643;DHT22;38531;53.296;6.614;2023-02-11T18:25:52;8.50;99.90
52643;DHT22;38531;53.296;6.614;2023-02-11T18:28:18;8.20;99.90
52643;DHT22;38531;53.296;6.614;2023-02-11T18:30:44;7.90;99.90